createdAt,value
2018-07-22T00:00:59.137Z,20.06
2018-07-22T00:01:59.335Z,19.99
2018-07-22T00:02:59.531Z,20.05
2018-07-22T00:03:59.749Z,20.06
2018-07-22T00:04:59.971Z,20.02
2018-07-22T00:06:00.174Z,20.10
2018-07-22T00:07:00.386Z,20.03
2018-07-22T00:08:00.586Z,19.92
2018-07-22T00:09:00.790Z,19.84
2018-07-22T00:10:01.004Z,19.86
2018-07-22T00:11:01.189Z,19.98
2018-07-22T00:12:01.398Z,19.92
2018-07-22T00:13:01.588Z,19.96
2018-07-22T00:14:01.833Z,19.87
2018-07-22T00:15:02.010Z,19.98
2018-07-22T00:16:02.222Z,19.96
2018-07-22T00:17:02.451Z,19.91
2018-07-22T00:18:02.663Z,19.91
2018-07-22T00:19:02.874Z,19.99
2018-07-22T00:20:03.077Z,19.91
2018-07-22T00:21:03.284Z,19.81
2018-07-22T00:22:03.500Z,19.71
2018-07-22T00:23:03.693Z,19.68
2018-07-22T00:24:03.889Z,19.78
2018-07-22T00:25:04.095Z,19.77
2018-07-22T00:26:04.309Z,19.69
2018-07-22T00:27:04.520Z,19.73
2018-07-22T00:28:04.736Z,19.66
2018-07-22T00:29:04.989Z,19.69
2018-07-22T00:30:05.123Z,19.73
2018-07-22T00:31:05.425Z,19.71
2018-07-22T00:32:05.506Z,19.73
2018-07-22T00:33:05.700Z,19.71
2018-07-22T00:34:05.907Z,19.76
2018-07-22T00:35:06.122Z,19.74
2018-07-22T00:36:06.322Z,19.65
2018-07-22T00:37:06.532Z,19.73
2018-07-22T00:38:06.724Z,19.66
2018-07-22T00:39:06.912Z,19.65
2018-07-22T00:41:39.064Z,19.58
2018-07-22T00:42:39.248Z,19.50
2018-07-22T00:43:39.463Z,19.56
2018-07-22T00:44:39.680Z,19.56
2018-07-22T00:45:39.867Z,19.61
2018-07-22T00:46:40.074Z,19.58
2018-07-22T00:47:40.287Z,19.55
2018-07-22T00:48:40.503Z,19.43
2018-07-22T00:49:40.715Z,19.48
2018-07-22T00:50:40.914Z,19.58
2018-07-22T00:51:41.136Z,19.55
2018-07-22T00:52:41.332Z,19.50
2018-07-22T00:53:41.546Z,19.50
2018-07-22T00:54:41.768Z,19.51
2018-07-22T00:55:41.980Z,19.56
2018-07-22T00:56:42.197Z,19.59
2018-07-22T00:57:42.397Z,19.55
2018-07-22T00:58:42.587Z,19.56
2018-07-22T00:59:42.783Z,19.56
2018-07-22T01:02:15.025Z,19.56
2018-07-22T01:03:15.079Z,19.59
2018-07-22T01:04:15.277Z,19.68
2018-07-22T01:05:15.476Z,19.58
2018-07-22T01:06:15.674Z,19.65
2018-07-22T01:07:15.878Z,19.65
2018-07-22T01:08:16.084Z,19.58
2018-07-22T01:09:16.274Z,19.54
2018-07-22T01:10:16.485Z,19.56
2018-07-22T01:11:16.684Z,19.58
2018-07-22T01:12:16.893Z,19.54
2018-07-22T01:13:17.114Z,19.47
2018-07-22T01:14:17.318Z,19.46
2018-07-22T01:15:17.522Z,19.47
2018-07-22T01:16:17.710Z,19.39
2018-07-22T01:17:17.919Z,19.51
2018-07-22T01:18:18.132Z,19.43
2018-07-22T01:19:18.320Z,19.48
2018-07-22T01:20:18.546Z,19.55
2018-07-22T01:21:18.755Z,19.54
2018-07-22T01:22:18.967Z,19.51
2018-07-22T01:23:19.221Z,19.59
2018-07-22T01:24:19.436Z,19.54
2018-07-22T01:25:19.647Z,19.55
2018-07-22T01:26:19.864Z,19.51
2018-07-22T01:27:20.073Z,19.51
2018-07-22T01:28:20.274Z,19.50
2018-07-22T01:29:20.472Z,19.51
2018-07-22T01:30:20.664Z,19.46
2018-07-22T01:31:20.937Z,19.40
2018-07-22T01:32:21.012Z,19.31
2018-07-22T01:33:21.215Z,19.47
2018-07-22T01:34:21.426Z,19.40
2018-07-22T01:35:21.620Z,19.47
2018-07-22T01:36:21.806Z,19.46
2018-07-22T01:37:22.009Z,19.41
2018-07-22T01:38:22.205Z,19.48
2018-07-22T01:39:22.393Z,19.46
2018-07-22T01:40:22.617Z,19.51
2018-07-22T01:41:22.813Z,19.46
2018-07-22T01:42:23.024Z,19.51
2018-07-22T01:43:23.240Z,19.46
2018-07-22T01:44:23.428Z,19.48
2018-07-22T01:45:23.613Z,19.46
2018-07-22T01:46:23.830Z,19.43
2018-07-22T01:47:24.033Z,19.50
2018-07-22T01:48:24.249Z,19.54
2018-07-22T01:49:24.447Z,19.55
2018-07-22T01:50:24.633Z,19.51
2018-07-22T01:51:24.821Z,19.55
2018-07-22T01:52:25.030Z,19.46
2018-07-22T01:53:25.225Z,19.58
2018-07-22T01:54:25.437Z,19.46
2018-07-22T01:55:25.623Z,19.41
2018-07-22T01:57:57.449Z,19.41
2018-07-22T01:58:57.623Z,19.41
2018-07-22T01:59:57.844Z,19.47
2018-07-22T02:00:58.045Z,19.26
2018-07-22T02:01:58.236Z,19.18
2018-07-22T02:02:58.438Z,19.16
2018-07-22T02:03:58.654Z,19.18
2018-07-22T02:04:58.854Z,19.23
2018-07-22T02:05:59.057Z,19.21
2018-07-22T02:06:59.247Z,19.18
2018-07-22T02:07:59.453Z,19.13
2018-07-22T02:08:59.663Z,19.18
2018-07-22T02:09:59.875Z,19.25
2018-07-22T02:11:00.082Z,19.13
2018-07-22T02:12:00.282Z,19.11
2018-07-22T02:13:00.488Z,19.18
2018-07-22T02:14:00.704Z,19.19
2018-07-22T02:15:00.914Z,19.26
2018-07-22T02:16:01.113Z,19.31
2018-07-22T02:17:01.334Z,19.21
2018-07-22T02:18:01.544Z,19.33
2018-07-22T02:19:01.743Z,19.21
2018-07-22T02:20:01.959Z,19.11
2018-07-22T02:21:02.162Z,18.94
2018-07-22T02:22:02.397Z,18.73
2018-07-22T02:23:02.598Z,18.73
2018-07-22T02:24:02.800Z,18.55
2018-07-22T02:25:03.014Z,18.52
2018-07-22T02:26:03.233Z,18.55
2018-07-22T02:27:03.425Z,18.63
2018-07-22T02:28:03.618Z,18.62
2018-07-22T02:29:03.825Z,18.65
2018-07-22T02:30:04.017Z,18.63
2018-07-22T02:31:04.236Z,18.70
2018-07-22T02:32:04.423Z,18.84
2018-07-22T02:33:04.609Z,18.75
2018-07-22T02:34:04.793Z,18.80
2018-07-22T02:35:05.000Z,18.78
2018-07-22T02:36:05.206Z,18.88
2018-07-22T02:37:05.415Z,18.80
2018-07-22T02:38:05.627Z,18.94
2018-07-22T02:39:05.822Z,18.90
2018-07-22T02:40:06.021Z,18.90
2018-07-22T02:41:06.231Z,18.94
2018-07-22T02:43:38.096Z,19.00
2018-07-22T02:44:38.270Z,18.92
2018-07-22T02:45:38.488Z,18.95
2018-07-22T02:46:38.670Z,18.98
2018-07-22T02:47:38.883Z,19.06
2018-07-22T02:48:39.084Z,19.08
2018-07-22T02:49:39.278Z,19.13
2018-07-22T02:50:39.468Z,19.00
2018-07-22T02:51:39.673Z,18.87
2018-07-22T02:52:39.880Z,18.84
2018-07-22T02:53:40.094Z,18.70
2018-07-22T02:54:40.284Z,18.54
2018-07-22T02:55:40.471Z,18.52
2018-07-22T02:56:40.673Z,18.36
2018-07-22T02:57:40.882Z,18.41
2018-07-22T02:58:41.095Z,18.44
2018-07-22T02:59:41.317Z,18.57
2018-07-22T03:00:41.504Z,18.55
2018-07-22T03:01:41.712Z,18.47
2018-07-22T03:02:41.903Z,18.60
2018-07-22T03:03:42.119Z,18.60
2018-07-22T03:04:42.331Z,18.60
2018-07-22T03:05:42.539Z,18.67
2018-07-22T03:06:42.725Z,18.75
2018-07-22T03:07:42.924Z,18.75
2018-07-22T03:08:43.131Z,18.84
2018-07-22T03:11:15.296Z,18.91
2018-07-22T03:12:15.473Z,18.85
2018-07-22T03:13:15.685Z,18.91
2018-07-22T03:14:15.901Z,18.88
2018-07-22T03:15:16.092Z,18.87
2018-07-22T03:16:16.303Z,18.84
2018-07-22T03:17:16.489Z,18.84
2018-07-22T03:18:16.683Z,18.81
2018-07-22T03:19:16.909Z,18.84
2018-07-22T03:20:17.117Z,18.85
2018-07-22T03:21:17.330Z,18.90
2018-07-22T03:22:17.542Z,18.91
2018-07-22T03:23:17.752Z,18.94
2018-07-22T03:24:17.952Z,19.06
2018-07-22T03:25:18.152Z,19.02
2018-07-22T03:26:18.343Z,19.08
2018-07-22T03:28:50.558Z,18.87
2018-07-22T03:29:50.734Z,18.84
2018-07-22T03:30:50.935Z,18.73
2018-07-22T03:31:51.131Z,18.62
2018-07-22T03:32:51.409Z,18.65
2018-07-22T03:33:51.483Z,18.72
2018-07-22T03:34:51.680Z,18.58
2018-07-22T03:35:51.855Z,18.65
2018-07-22T03:36:52.055Z,18.50
2018-07-22T03:37:52.260Z,18.45
2018-07-22T03:38:52.452Z,18.42
2018-07-22T03:41:24.323Z,18.36
2018-07-22T03:42:24.500Z,18.48
2018-07-22T03:43:24.699Z,18.42
2018-07-22T03:44:24.964Z,18.37
2018-07-22T03:45:25.045Z,18.47
2018-07-22T03:46:25.243Z,18.60
2018-07-22T03:47:25.455Z,18.55
2018-07-22T03:48:25.641Z,18.55
2018-07-22T03:49:25.833Z,18.55
2018-07-22T03:50:26.024Z,18.52
2018-07-22T03:51:26.228Z,18.60
2018-07-22T03:52:26.433Z,18.57
2018-07-22T03:53:26.648Z,18.57
2018-07-22T03:54:26.858Z,18.51
2018-07-22T03:55:27.102Z,18.42
2018-07-22T03:56:27.303Z,18.58
2018-07-22T03:57:27.509Z,18.62
2018-07-22T03:58:27.707Z,18.66
2018-07-22T03:59:27.900Z,18.78
2018-07-22T04:00:28.092Z,18.69
2018-07-22T04:01:28.280Z,18.65
2018-07-22T04:02:28.494Z,18.75
2018-07-22T04:03:28.679Z,18.75
2018-07-22T04:04:28.885Z,18.82
2018-07-22T04:05:29.077Z,18.80
2018-07-22T04:06:29.294Z,18.67
2018-07-22T04:07:29.506Z,18.70
2018-07-22T04:08:29.694Z,18.62
2018-07-22T04:09:29.920Z,18.76
2018-07-22T04:10:30.127Z,18.72
2018-07-22T04:11:30.312Z,18.69
2018-07-22T04:12:30.513Z,18.67
2018-07-22T04:13:30.705Z,18.78
2018-07-22T04:14:30.902Z,18.75
2018-07-22T04:15:31.090Z,18.82
2018-07-22T04:16:31.294Z,18.81
2018-07-22T04:17:31.497Z,18.82
2018-07-22T04:18:31.717Z,18.85
2018-07-22T04:19:31.924Z,18.90
2018-07-22T04:20:32.137Z,18.84
2018-07-22T04:21:32.402Z,18.87
2018-07-22T04:22:32.524Z,18.87
2018-07-22T04:25:04.680Z,19.02
2018-07-22T04:26:04.854Z,18.92
2018-07-22T04:27:05.067Z,19.04
2018-07-22T04:28:05.276Z,18.95
2018-07-22T04:29:05.489Z,19.14
2018-07-22T04:30:05.691Z,19.02
2018-07-22T04:31:05.881Z,19.00
2018-07-22T04:32:06.082Z,18.99
2018-07-22T04:33:06.293Z,18.87
2018-07-22T04:34:06.497Z,18.94
2018-07-22T04:35:06.708Z,18.99
2018-07-22T04:36:06.894Z,19.04
2018-07-22T04:37:07.093Z,19.07
2018-07-22T04:38:07.400Z,19.10
2018-07-22T04:39:07.475Z,19.02
2018-07-22T04:40:07.684Z,19.02
2018-07-22T04:41:07.901Z,19.02
2018-07-22T04:42:08.084Z,19.10
2018-07-22T04:43:08.298Z,19.08
2018-07-22T04:44:08.507Z,19.08
2018-07-22T04:45:08.707Z,19.00
2018-07-22T04:46:08.914Z,18.99
2018-07-22T04:47:09.102Z,18.98
2018-07-22T04:48:09.311Z,18.98
2018-07-22T04:49:09.529Z,18.98
2018-07-22T04:51:41.842Z,19.06
2018-07-22T04:52:42.016Z,18.92
2018-07-22T04:53:42.218Z,19.02
2018-07-22T04:54:42.421Z,19.00
2018-07-22T04:55:42.612Z,19.06
2018-07-22T04:56:42.811Z,19.04
2018-07-22T04:57:43.023Z,19.10
2018-07-22T05:00:15.200Z,19.00
2018-07-22T05:01:15.384Z,19.00
2018-07-22T05:02:15.598Z,18.94
2018-07-22T05:03:15.808Z,18.91
2018-07-22T05:04:16.000Z,18.88
2018-07-22T05:06:48.197Z,18.91
2018-07-22T05:07:48.375Z,18.87
2018-07-22T05:08:48.586Z,18.80
2018-07-22T05:09:48.794Z,18.82
2018-07-22T05:10:48.978Z,18.82
2018-07-22T05:11:49.175Z,18.82
2018-07-22T05:12:49.383Z,18.81
2018-07-22T05:13:49.584Z,18.87
2018-07-22T05:14:49.768Z,19.00
2018-07-22T05:15:49.971Z,18.94
2018-07-22T05:16:50.168Z,19.04
2018-07-22T05:17:50.361Z,19.04
2018-07-22T05:18:50.553Z,18.94
2018-07-22T05:19:50.761Z,18.99
2018-07-22T05:20:50.973Z,19.06
2018-07-22T05:21:51.174Z,19.08
2018-07-22T05:22:51.380Z,19.11
2018-07-22T05:23:51.585Z,19.06
2018-07-22T05:24:51.795Z,19.10
2018-07-22T05:25:51.984Z,19.00
2018-07-22T05:26:52.203Z,18.99
2018-07-22T05:27:52.403Z,19.02
2018-07-22T05:28:52.616Z,18.82
2018-07-22T05:29:52.858Z,18.60
2018-07-22T05:30:53.058Z,18.65
2018-07-22T05:31:53.248Z,18.73
2018-07-22T05:32:53.441Z,18.57
2018-07-22T05:33:53.638Z,18.62
2018-07-22T05:34:53.827Z,18.65
2018-07-22T05:35:54.014Z,18.65
2018-07-22T05:36:54.218Z,18.73
2018-07-22T05:37:54.406Z,18.75
2018-07-22T05:38:54.608Z,18.85
2018-07-22T05:39:54.834Z,18.87
2018-07-22T05:40:55.030Z,18.87
2018-07-22T05:41:55.238Z,18.73
2018-07-22T05:42:55.427Z,18.85
2018-07-22T05:43:55.633Z,18.87
2018-07-22T05:44:55.840Z,18.94
2018-07-22T05:45:56.045Z,19.06
2018-07-22T05:46:56.250Z,19.08
2018-07-22T05:47:56.436Z,19.00
2018-07-22T05:48:56.644Z,19.08
2018-07-22T05:49:56.848Z,18.87
2018-07-22T05:50:57.045Z,18.87
2018-07-22T05:51:57.315Z,18.95
2018-07-22T05:52:57.384Z,18.88
2018-07-22T05:53:57.623Z,18.84
2018-07-22T05:54:57.772Z,18.73
2018-07-22T05:55:57.965Z,18.67
2018-07-22T05:56:58.166Z,18.62
2018-07-22T05:57:58.391Z,18.62
2018-07-22T05:58:58.597Z,18.70
2018-07-22T05:59:58.802Z,18.72
2018-07-22T06:00:59.014Z,18.66
2018-07-22T06:01:59.210Z,18.65
2018-07-22T06:02:59.489Z,18.87
2018-07-22T06:03:59.577Z,18.88
2018-07-22T06:04:59.764Z,18.88
2018-07-22T06:05:59.973Z,18.98
2018-07-22T06:08:31.793Z,18.91
2018-07-22T06:09:31.973Z,18.90
2018-07-22T06:10:32.180Z,18.91
2018-07-22T06:11:32.373Z,18.92
2018-07-22T06:12:32.567Z,18.88
2018-07-22T06:13:32.776Z,18.85
2018-07-22T06:14:33.070Z,18.85
2018-07-22T06:15:33.136Z,18.78
2018-07-22T06:16:33.360Z,18.87
2018-07-22T06:17:33.566Z,18.88
2018-07-22T06:18:33.747Z,18.85
2018-07-22T06:19:33.937Z,18.99
2018-07-22T06:20:34.154Z,19.07
2018-07-22T06:21:34.357Z,19.06
2018-07-22T06:22:34.551Z,19.14
2018-07-22T06:25:06.698Z,19.18
2018-07-22T06:26:06.876Z,19.29
2018-07-22T06:27:07.075Z,19.23
2018-07-22T06:28:07.292Z,19.29
2018-07-22T06:29:07.488Z,19.32
2018-07-22T06:30:07.689Z,19.43
2018-07-22T06:31:07.900Z,19.48
2018-07-22T06:32:08.093Z,19.47
2018-07-22T06:33:08.284Z,19.48
2018-07-22T06:34:08.478Z,19.56
2018-07-22T06:35:08.704Z,19.62
2018-07-22T06:36:08.897Z,19.66
2018-07-22T06:37:09.090Z,19.73
2018-07-22T06:38:09.299Z,19.73
2018-07-22T06:39:09.530Z,19.66
2018-07-22T06:40:09.747Z,19.66
2018-07-22T06:41:09.971Z,19.58
2018-07-22T06:42:10.140Z,19.73
2018-07-22T06:43:10.342Z,19.78
2018-07-22T06:44:10.533Z,19.76
2018-07-22T06:45:10.756Z,19.80
2018-07-22T06:46:10.981Z,19.98
2018-07-22T06:47:11.174Z,19.94
2018-07-22T06:48:11.389Z,19.88
2018-07-22T06:49:11.574Z,19.86
2018-07-22T06:50:11.807Z,19.99
2018-07-22T06:51:11.993Z,19.96
2018-07-22T06:52:12.195Z,20.01
2018-07-22T06:53:12.390Z,20.08
2018-07-22T06:54:12.634Z,20.11
2018-07-22T06:55:12.780Z,20.08
2018-07-22T06:56:12.980Z,20.20
2018-07-22T06:57:13.237Z,20.23
2018-07-22T06:58:13.396Z,20.38
2018-07-22T06:59:13.591Z,20.38
2018-07-22T07:00:13.784Z,20.48
2018-07-22T07:01:13.986Z,20.51
2018-07-22T07:02:14.201Z,20.50
2018-07-22T07:03:14.418Z,20.54
2018-07-22T07:04:14.606Z,20.58
2018-07-22T07:05:14.860Z,20.62
2018-07-22T07:06:15.002Z,20.48
2018-07-22T07:07:15.209Z,20.41
2018-07-22T07:08:15.517Z,20.35
2018-07-22T07:09:15.587Z,20.33
2018-07-22T07:10:15.778Z,20.41
2018-07-22T07:11:15.970Z,20.51
2018-07-22T07:12:16.192Z,20.57
2018-07-22T07:13:16.378Z,20.64
2018-07-22T07:14:16.599Z,20.70
2018-07-22T07:15:16.785Z,20.58
2018-07-22T07:16:16.982Z,20.69
2018-07-22T07:17:17.182Z,20.76
2018-07-22T07:18:17.402Z,20.84
2018-07-22T07:19:17.622Z,20.77
2018-07-22T07:20:17.821Z,20.95
2018-07-22T07:21:18.042Z,20.82
2018-07-22T07:22:18.253Z,20.82
2018-07-22T07:23:18.445Z,20.76
2018-07-22T07:24:18.660Z,20.62
2018-07-22T07:25:18.868Z,20.51
2018-07-22T07:26:19.088Z,20.51
2018-07-22T07:27:19.274Z,20.50
2018-07-22T07:28:19.488Z,20.59
2018-07-22T07:29:19.705Z,20.59
2018-07-22T07:30:19.896Z,20.51
2018-07-22T07:31:20.092Z,20.55
2018-07-22T07:32:20.280Z,20.41
2018-07-22T07:33:20.472Z,20.48
2018-07-22T07:34:20.707Z,20.31
2018-07-22T07:35:20.908Z,20.14
2018-07-22T07:36:21.121Z,20.06
2018-07-22T07:37:21.314Z,20.03
2018-07-22T07:38:21.507Z,19.99
2018-07-22T07:39:21.699Z,19.99
2018-07-22T07:40:21.902Z,20.03
2018-07-22T07:41:22.109Z,20.26
2018-07-22T07:42:22.348Z,20.35
2018-07-22T07:43:22.524Z,20.42
2018-07-22T07:44:22.721Z,20.58
2018-07-22T07:45:22.912Z,20.66
2018-07-22T07:46:23.142Z,20.62
2018-07-22T07:47:23.357Z,20.51
2018-07-22T07:48:23.550Z,20.61
2018-07-22T07:49:23.763Z,20.61
2018-07-22T07:50:23.962Z,20.66
2018-07-22T07:51:24.174Z,20.58
2018-07-22T07:52:24.400Z,20.38
2018-07-22T07:53:24.651Z,20.41
2018-07-22T07:54:24.831Z,20.61
2018-07-22T07:55:25.023Z,20.77
2018-07-22T07:56:25.236Z,21.03
2018-07-22T07:57:25.450Z,21.16
2018-07-22T07:58:25.667Z,21.34
2018-07-22T07:59:25.877Z,21.49
2018-07-22T08:00:26.065Z,21.49
2018-07-22T08:01:26.289Z,21.35
2018-07-22T08:02:26.497Z,21.44
2018-07-22T08:03:26.691Z,21.53
2018-07-22T08:04:26.901Z,21.44
2018-07-22T08:05:27.137Z,21.27
2018-07-22T08:06:27.313Z,21.10
2018-07-22T08:07:27.560Z,21.34
2018-07-22T08:08:27.765Z,21.47
2018-07-22T08:09:27.974Z,21.79
2018-07-22T08:10:28.186Z,21.92
2018-07-22T08:11:28.404Z,22.15
2018-07-22T08:12:28.617Z,22.18
2018-07-22T08:13:28.829Z,22.37
2018-07-22T08:14:29.042Z,22.52
2018-07-22T08:15:29.263Z,22.40
2018-07-22T08:16:29.485Z,22.60
2018-07-22T08:17:29.688Z,22.49
2018-07-22T08:18:29.883Z,22.37
2018-07-22T08:19:30.098Z,22.55
2018-07-22T08:20:30.290Z,22.72
2018-07-22T08:21:30.566Z,22.86
2018-07-22T08:22:30.729Z,23.23
2018-07-22T08:23:30.953Z,23.31
2018-07-22T08:24:31.160Z,23.57
2018-07-22T08:25:31.346Z,23.87
2018-07-22T08:26:31.596Z,24.06
2018-07-22T08:27:31.667Z,24.22
2018-07-22T08:28:31.870Z,24.53
2018-07-22T08:29:32.093Z,24.67
2018-07-22T08:30:32.371Z,24.84
2018-07-22T08:31:32.495Z,24.88
2018-07-22T08:32:32.716Z,24.52
2018-07-22T08:33:33.005Z,24.06
2018-07-22T08:34:33.088Z,24.10
2018-07-22T08:35:33.285Z,23.95
2018-07-22T08:36:33.477Z,24.13
2018-07-22T08:37:33.670Z,24.18
2018-07-22T08:38:33.879Z,24.15
2018-07-22T08:39:34.069Z,24.13
2018-07-22T08:40:34.273Z,23.69
2018-07-22T08:41:34.527Z,23.57
2018-07-22T08:42:34.653Z,23.55
2018-07-22T08:43:34.864Z,23.58
2018-07-22T08:44:35.089Z,23.53
2018-07-22T08:45:35.317Z,23.23
2018-07-22T08:46:35.520Z,23.36
2018-07-22T08:47:35.765Z,23.50
2018-07-22T08:48:35.954Z,23.47
2018-07-22T08:49:36.163Z,23.31
2018-07-22T08:50:36.378Z,23.28
2018-07-22T08:51:36.569Z,22.98
2018-07-22T08:52:36.773Z,23.05
2018-07-22T08:53:36.994Z,23.02
2018-07-22T08:54:37.211Z,23.09
2018-07-22T08:55:37.406Z,23.35
2018-07-22T08:56:37.625Z,23.55
2018-07-22T08:57:37.831Z,23.12
2018-07-22T08:58:38.052Z,23.15
2018-07-22T08:59:38.262Z,23.19
2018-07-22T09:00:38.480Z,23.13
2018-07-22T09:01:38.686Z,23.27
2018-07-22T09:02:38.900Z,23.70
2018-07-22T09:03:39.095Z,23.47
2018-07-22T09:04:39.302Z,23.46
2018-07-22T09:05:39.531Z,23.90
2018-07-22T09:06:39.743Z,23.97
2018-07-22T09:07:39.943Z,23.79
2018-07-22T09:08:40.152Z,23.79
2018-07-22T09:09:40.364Z,24.06
2018-07-22T09:10:40.577Z,24.31
2018-07-22T09:11:40.779Z,24.49
2018-07-22T09:12:40.969Z,24.64
2018-07-22T09:13:41.186Z,24.32
2018-07-22T09:14:41.388Z,24.10
2018-07-22T09:15:41.608Z,24.16
2018-07-22T09:16:41.810Z,24.35
2018-07-22T09:17:42.031Z,24.28
2018-07-22T09:18:42.226Z,24.16
2018-07-22T09:19:42.439Z,24.09
2018-07-22T09:20:42.628Z,24.45
2018-07-22T09:21:42.819Z,24.12
2018-07-22T09:22:43.004Z,23.17
2018-07-22T09:23:43.221Z,23.43
2018-07-22T09:24:43.428Z,23.60
2018-07-22T09:25:43.645Z,23.69
2018-07-22T09:26:43.837Z,23.76
2018-07-22T09:27:44.044Z,23.94
2018-07-22T09:28:44.247Z,24.24
2018-07-22T09:29:44.451Z,24.32
2018-07-22T09:30:44.646Z,24.52
2018-07-22T09:31:44.841Z,24.21
2018-07-22T09:32:45.055Z,24.30
2018-07-22T09:35:17.257Z,24.10
2018-07-22T09:36:17.632Z,24.09
2018-07-22T09:37:17.641Z,24.09
2018-07-22T09:38:17.849Z,24.05
2018-07-22T09:39:18.074Z,23.75
2018-07-22T09:40:18.284Z,23.35
2018-07-22T09:41:18.490Z,23.48
2018-07-22T09:42:18.703Z,23.55
2018-07-22T09:43:18.923Z,23.87
2018-07-22T09:44:19.143Z,23.76
2018-07-22T09:45:19.341Z,23.78
2018-07-22T09:47:51.488Z,24.03
2018-07-22T09:48:51.667Z,23.94
2018-07-22T09:49:51.876Z,24.21
2018-07-22T09:50:52.073Z,24.20
2018-07-22T09:51:52.283Z,24.42
2018-07-22T09:52:52.484Z,24.45
2018-07-22T09:53:52.680Z,24.00
2018-07-22T09:54:52.874Z,24.03
2018-07-22T09:55:53.076Z,24.05
2018-07-22T09:56:53.280Z,24.06
2018-07-22T09:57:53.505Z,24.37
2018-07-22T09:58:53.695Z,24.34
2018-07-22T09:59:53.896Z,24.52
2018-07-22T10:00:54.088Z,24.68
2018-07-22T10:01:54.297Z,24.73
2018-07-22T10:02:54.513Z,24.93
2018-07-22T10:03:54.726Z,24.91
2018-07-22T10:04:54.999Z,25.13
2018-07-22T10:05:55.156Z,25.18
2018-07-22T10:06:55.360Z,25.21
2018-07-22T10:07:55.562Z,25.25
2018-07-22T10:08:55.754Z,24.95
2018-07-22T10:09:55.947Z,24.49
2018-07-22T10:10:56.162Z,24.53
2018-07-22T10:11:56.360Z,24.93
2018-07-22T10:12:56.582Z,25.38
2018-07-22T10:15:28.740Z,24.78
2018-07-22T10:16:28.912Z,25.24
2018-07-22T10:17:29.151Z,25.03
2018-07-22T10:18:29.358Z,25.13
2018-07-22T10:19:29.570Z,25.32
2018-07-22T10:20:29.774Z,25.61
2018-07-22T10:21:29.975Z,25.82
2018-07-22T10:22:30.182Z,25.58
2018-07-22T10:23:30.464Z,25.09
2018-07-22T10:24:30.583Z,24.80
2018-07-22T10:25:30.799Z,24.60
2018-07-22T10:26:30.995Z,24.64
2018-07-22T10:27:31.212Z,24.76
2018-07-22T10:28:31.435Z,25.14
2018-07-22T10:29:31.634Z,25.36
2018-07-22T10:30:31.838Z,25.52
2018-07-22T10:31:32.039Z,25.99
2018-07-22T10:32:32.237Z,25.54
2018-07-22T10:33:32.453Z,25.64
2018-07-22T10:34:32.689Z,25.47
2018-07-22T10:35:32.892Z,25.70
2018-07-22T10:36:33.108Z,25.60
2018-07-22T10:37:33.329Z,25.28
2018-07-22T10:38:33.544Z,24.90
2018-07-22T10:39:33.745Z,24.46
2018-07-22T10:40:33.966Z,24.49
2018-07-22T10:41:34.176Z,24.57
2018-07-22T10:42:34.402Z,24.81
2018-07-22T10:43:34.598Z,25.02
2018-07-22T10:44:34.796Z,25.09
2018-07-22T10:45:34.983Z,25.24
2018-07-22T10:46:35.204Z,25.52
2018-07-22T10:47:35.415Z,25.73
2018-07-22T10:50:07.637Z,25.43
2018-07-22T10:51:07.826Z,25.61
2018-07-22T10:52:08.040Z,25.87
2018-07-22T10:53:08.240Z,25.90
2018-07-22T10:54:08.447Z,26.13
2018-07-22T10:55:08.675Z,26.47
2018-07-22T10:56:08.875Z,26.69
2018-07-22T10:57:09.093Z,27.00
2018-07-22T10:58:09.317Z,27.07
2018-07-22T10:59:09.523Z,27.14
2018-07-22T11:00:09.758Z,27.29
2018-07-22T11:01:09.981Z,27.65
2018-07-22T11:02:10.216Z,27.90
2018-07-22T11:03:10.452Z,27.90
2018-07-22T11:04:10.644Z,27.99
2018-07-22T11:06:42.481Z,27.85
2018-07-22T11:07:42.664Z,27.57
2018-07-22T11:08:42.846Z,27.07
2018-07-22T11:09:43.041Z,26.23
2018-07-22T11:10:43.246Z,24.98
2018-07-22T11:11:43.446Z,24.80
2018-07-22T11:12:43.662Z,25.23
2018-07-22T11:13:43.897Z,25.05
2018-07-22T11:14:44.193Z,25.06
2018-07-22T11:15:44.311Z,25.27
2018-07-22T11:16:44.514Z,25.60
2018-07-22T11:17:44.721Z,25.75
2018-07-22T11:20:16.936Z,25.67
2018-07-22T11:21:17.007Z,25.91
2018-07-22T11:22:17.207Z,26.33
2018-07-22T11:23:17.405Z,26.43
2018-07-22T11:24:17.624Z,25.94
2018-07-22T11:25:17.818Z,25.98
2018-07-22T11:26:18.021Z,25.99
2018-07-22T11:27:18.237Z,25.57
2018-07-22T11:28:18.428Z,25.82
2018-07-22T11:29:18.627Z,26.37
2018-07-22T11:30:18.825Z,26.57
2018-07-22T11:31:19.027Z,26.89
2018-07-22T11:32:19.245Z,26.77
2018-07-22T11:33:19.476Z,26.67
2018-07-22T11:34:19.677Z,26.66
2018-07-22T11:35:19.873Z,26.77
2018-07-22T11:36:20.106Z,27.03
2018-07-22T11:37:20.322Z,27.21
2018-07-22T11:38:20.535Z,27.18
2018-07-22T11:39:20.737Z,27.09
2018-07-22T11:40:20.962Z,27.12
2018-07-22T11:42:52.799Z,26.58
2018-07-22T11:43:53.005Z,26.32
2018-07-22T11:44:53.191Z,25.94
2018-07-22T11:45:53.408Z,25.90
2018-07-22T11:46:53.617Z,26.01
2018-07-22T11:47:53.832Z,26.02
2018-07-22T11:48:54.041Z,26.09
2018-07-22T11:49:54.243Z,26.01
2018-07-22T11:50:54.457Z,26.01
2018-07-22T11:51:54.684Z,26.15
2018-07-22T11:52:54.887Z,26.05
2018-07-22T11:53:55.096Z,25.80
2018-07-22T11:54:55.312Z,25.27
2018-07-22T11:55:55.533Z,24.91
2018-07-22T11:56:55.748Z,25.10
2018-07-22T11:57:55.954Z,25.18
2018-07-22T11:58:56.175Z,25.45
2018-07-22T11:59:56.375Z,26.02
2018-07-22T12:00:56.592Z,26.62
2018-07-22T12:01:56.810Z,26.77
2018-07-22T12:02:57.035Z,26.70
2018-07-22T12:03:57.249Z,26.99
2018-07-22T12:04:57.474Z,27.36
2018-07-22T12:05:57.714Z,27.44
2018-07-22T12:06:57.920Z,27.88
2018-07-22T12:07:58.138Z,27.85
2018-07-22T12:08:58.351Z,27.88
2018-07-22T12:09:58.544Z,27.77
2018-07-22T12:10:58.764Z,28.11
2018-07-22T12:11:58.984Z,28.27
2018-07-22T12:12:59.203Z,28.25
2018-07-22T12:13:59.427Z,28.64
2018-07-22T12:14:59.618Z,28.44
2018-07-22T12:15:59.834Z,28.68
2018-07-22T12:17:00.049Z,28.36
2018-07-22T12:18:00.265Z,28.48
2018-07-22T12:19:00.464Z,28.31
2018-07-22T12:20:00.671Z,28.59
2018-07-22T12:21:00.891Z,27.63
2018-07-22T12:22:01.088Z,27.92
2018-07-22T12:23:01.307Z,27.90
2018-07-22T12:24:01.521Z,27.63
2018-07-22T12:25:01.742Z,27.69
2018-07-22T12:26:01.964Z,27.75
2018-07-22T12:27:02.157Z,27.87
2018-07-22T12:28:02.369Z,27.99
2018-07-22T12:29:02.585Z,27.72
2018-07-22T12:30:02.753Z,28.06
2018-07-22T12:31:02.944Z,28.48
2018-07-22T12:32:03.178Z,28.21
2018-07-22T12:33:03.409Z,27.79
2018-07-22T12:34:03.614Z,27.78
2018-07-22T12:35:03.824Z,27.85
2018-07-22T12:36:04.043Z,27.97
2018-07-22T12:37:04.257Z,27.96
2018-07-22T12:38:04.460Z,28.14
2018-07-22T12:39:04.655Z,28.15
2018-07-22T12:40:04.881Z,27.87
2018-07-22T12:41:05.168Z,27.78
2018-07-22T12:42:05.259Z,27.81
2018-07-22T12:43:05.487Z,27.60
2018-07-22T12:44:05.705Z,27.79
2018-07-22T12:45:05.911Z,27.79
2018-07-22T12:46:06.113Z,27.88
2018-07-22T12:47:06.337Z,27.88
2018-07-22T12:48:06.530Z,28.33
2018-07-22T12:49:06.726Z,28.30
2018-07-22T12:50:06.925Z,28.33
2018-07-22T12:51:07.126Z,28.52
2018-07-22T12:52:07.324Z,28.78
2018-07-22T12:53:07.537Z,28.86
2018-07-22T12:54:07.746Z,29.23
2018-07-22T12:55:07.942Z,29.49
2018-07-22T12:56:08.150Z,29.55
2018-07-22T12:57:08.352Z,29.45
2018-07-22T12:58:08.571Z,29.42
2018-07-22T12:59:08.840Z,29.46
2018-07-22T13:00:08.999Z,29.45
2018-07-22T13:01:09.195Z,28.77
2018-07-22T13:02:09.388Z,28.11
2018-07-22T13:03:09.597Z,27.99
2018-07-22T13:04:09.816Z,28.29
2018-07-22T13:05:10.036Z,28.44
2018-07-22T13:06:10.259Z,28.52
2018-07-22T13:07:10.475Z,28.33
2018-07-22T13:08:10.687Z,28.18
2018-07-22T13:09:10.888Z,28.11
2018-07-22T13:10:11.103Z,28.21
2018-07-22T13:11:11.299Z,28.49
2018-07-22T13:12:11.517Z,28.64
2018-07-22T13:13:11.797Z,29.06
2018-07-22T13:14:11.934Z,29.08
2018-07-22T13:15:12.155Z,28.67
2018-07-22T13:16:12.378Z,28.71
2018-07-22T13:17:12.594Z,28.71
2018-07-22T13:18:12.792Z,28.83
2018-07-22T13:19:13.015Z,29.08
2018-07-22T13:20:13.214Z,29.26
2018-07-22T13:21:13.434Z,29.27
2018-07-22T13:22:13.628Z,29.34
2018-07-22T13:23:13.841Z,29.15
2018-07-22T13:24:14.053Z,29.15
2018-07-22T13:25:14.269Z,28.80
2018-07-22T13:26:14.484Z,28.64